createdAt,value
2022-08-22T00:02:36.995Z,26.53
2022-08-22T00:02:56.595Z,27.83
2022-08-22T00:05:27.722Z,26.53
2022-08-22T00:08:03.669Z,26.46
2022-08-22T00:11:18.059Z,26.44
2022-08-22T00:14:17.421Z,26.44
2022-08-22T00:16:53.466Z,26.37
2022-08-22T00:19:31.433Z,26.35
2022-08-22T00:22:13.349Z,26.25
2022-08-22T00:25:00.494Z,26.20
2022-08-22T00:27:34.115Z,26.19
2022-08-22T00:30:09.826Z,26.24
2022-08-22T00:32:47.287Z,26.27
2022-08-22T00:35:19.782Z,26.30
2022-08-22T00:38:14.241Z,26.24
2022-08-22T00:41:03.462Z,26.17
2022-08-22T00:43:52.053Z,26.09
2022-08-22T00:46:18.647Z,26.07
2022-08-22T00:49:11.060Z,25.96
2022-08-22T00:52:16.273Z,25.85
2022-08-22T00:55:00.872Z,25.89
2022-08-22T00:57:39.686Z,25.83
2022-08-22T01:00:25.326Z,25.88
2022-08-22T01:03:29.172Z,25.87
2022-08-22T01:06:16.955Z,25.82
2022-08-22T01:08:50.976Z,25.73
2022-08-22T01:11:23.757Z,25.68
2022-08-22T01:14:03.992Z,25.70
2022-08-22T01:16:52.012Z,25.71
2022-08-22T01:19:21.408Z,25.65
2022-08-22T01:22:12.571Z,25.63
2022-08-22T01:25:18.361Z,25.60
2022-08-22T01:28:07.491Z,25.66
2022-08-22T01:30:56.951Z,25.60
2022-08-22T01:33:37.639Z,25.48
2022-08-22T01:36:10.306Z,25.44
2022-08-22T01:38:43.035Z,25.43
2022-08-22T01:41:51.342Z,25.39
2022-08-22T01:44:39.350Z,25.32
2022-08-22T01:47:17.716Z,25.17
2022-08-22T01:49:51.292Z,25.10
2022-08-22T01:52:28.154Z,25.13
2022-08-22T01:55:01.707Z,25.05
2022-08-22T01:57:28.687Z,25.04
2022-08-22T01:59:59.183Z,25.12
2022-08-22T02:02:38.820Z,24.93
2022-08-22T02:05:11.756Z,24.92
2022-08-22T02:07:48.316Z,24.71
2022-08-22T02:10:26.642Z,24.70
2022-08-22T02:13:17.511Z,24.51
2022-08-22T02:15:52.486Z,24.47
2022-08-22T02:18:31.069Z,24.44
2022-08-22T02:21:16.372Z,24.35
2022-08-22T02:24:14.628Z,24.27
2022-08-22T02:26:57.609Z,24.14
2022-08-22T02:29:35.678Z,24.18
2022-08-22T02:32:44.049Z,24.08
2022-08-22T02:35:29.505Z,23.97
2022-08-22T02:38:21.374Z,23.87
2022-08-22T02:41:00.904Z,23.84
2022-08-22T02:43:49.606Z,23.83
2022-08-22T02:46:25.285Z,23.75
2022-08-22T02:49:19.855Z,23.72
2022-08-22T02:52:13.524Z,23.73
2022-08-22T02:54:57.526Z,23.74
2022-08-22T02:57:47.508Z,23.73
2022-08-22T03:00:30.901Z,23.63
2022-08-22T03:02:59.541Z,23.50
2022-08-22T03:05:52.382Z,23.45
2022-08-22T03:08:37.969Z,23.39
2022-08-22T03:11:27.015Z,23.35
2022-08-22T03:13:53.755Z,23.31
2022-08-22T03:16:39.240Z,23.26
2022-08-22T03:19:20.090Z,23.18
2022-08-22T03:22:00.663Z,23.21
2022-08-22T03:24:38.129Z,23.13
2022-08-22T03:27:12.816Z,23.08
2022-08-22T03:30:07.728Z,23.01
2022-08-22T03:33:15.464Z,22.91
2022-08-22T03:35:42.229Z,22.81
2022-08-22T03:38:21.176Z,22.69
2022-08-22T03:40:56.717Z,22.56
2022-08-22T03:43:26.207Z,22.56
2022-08-22T03:46:17.471Z,22.50
2022-08-22T03:48:57.391Z,22.53
2022-08-22T03:51:40.411Z,22.49
2022-08-22T03:54:44.012Z,22.41
2022-08-22T03:57:40.081Z,22.41
2022-08-22T04:00:11.227Z,22.46
2022-08-22T04:03:05.523Z,22.47
2022-08-22T04:05:43.633Z,22.50
2022-08-22T04:08:49.001Z,22.46
2022-08-22T04:11:32.370Z,22.41
2022-08-22T04:14:04.926Z,22.31
2022-08-22T04:16:52.820Z,22.29
2022-08-22T04:19:31.647Z,22.22
2022-08-22T04:21:58.273Z,22.24
2022-08-22T04:24:43.399Z,22.22
2022-08-22T04:27:24.339Z,22.24
2022-08-22T04:30:09.673Z,22.19
2022-08-22T04:32:43.349Z,22.15
2022-08-22T04:35:28.616Z,22.16
2022-08-22T04:38:04.499Z,22.17
2022-08-22T04:41:04.393Z,22.14
2022-08-22T04:43:44.983Z,22.20
2022-08-22T04:46:33.753Z,22.20
2022-08-22T04:49:31.949Z,22.14
2022-08-22T04:52:29.461Z,22.02
2022-08-22T04:55:23.929Z,22.00
2022-08-22T04:58:01.238Z,22.04
2022-08-22T05:01:08.519Z,22.02
2022-08-22T05:03:44.738Z,22.06
2022-08-22T05:06:15.299Z,22.15
2022-08-22T05:08:44.925Z,22.15
2022-08-22T05:11:19.523Z,22.17
2022-08-22T05:13:54.845Z,22.17
2022-08-22T05:16:26.588Z,22.20
2022-08-22T05:18:59.383Z,22.33
2022-08-22T05:21:32.249Z,22.38
2022-08-22T05:24:07.416Z,22.57
2022-08-22T05:26:40.665Z,22.82
2022-08-22T05:29:11.796Z,22.84
2022-08-22T05:31:47.625Z,23.04
2022-08-22T05:34:19.797Z,23.16
2022-08-22T05:36:56.556Z,23.28
2022-08-22T05:39:27.799Z,23.49
2022-08-22T05:42:01.838Z,23.89
2022-08-22T05:44:37.912Z,24.29
2022-08-22T05:47:16.763Z,24.67
2022-08-22T05:49:49.651Z,25.22
2022-08-22T05:52:42.259Z,25.48
2022-08-22T05:55:18.115Z,25.65
2022-08-22T05:57:50.455Z,25.85
2022-08-22T06:00:25.813Z,26.17
2022-08-22T06:03:11.462Z,26.59
2022-08-22T06:05:43.733Z,26.83
2022-08-22T06:08:36.930Z,27.45
2022-08-22T06:11:13.090Z,27.49
2022-08-22T06:13:47.236Z,27.60
2022-08-22T06:16:17.999Z,27.57
2022-08-22T06:18:45.929Z,27.82
2022-08-22T06:21:32.530Z,27.92
2022-08-22T06:24:05.280Z,28.40
2022-08-22T06:26:40.101Z,29.10
2022-08-22T06:29:09.310Z,29.69
2022-08-22T06:31:43.260Z,30.23
2022-08-22T06:34:23.544Z,30.73
2022-08-22T06:36:54.192Z,31.34
2022-08-22T06:39:34.541Z,30.79
2022-08-22T06:42:10.381Z,30.03
2022-08-22T06:44:45.260Z,29.80
2022-08-22T06:47:20.756Z,30.07
2022-08-22T06:49:48.239Z,30.82
2022-08-22T06:52:21.086Z,32.03
2022-08-22T06:54:51.510Z,32.89
2022-08-22T06:57:35.311Z,33.57
2022-08-22T07:00:07.535Z,33.97
2022-08-22T07:02:42.927Z,33.91
2022-08-22T07:05:18.891Z,34.32
2022-08-22T07:07:45.916Z,34.48
2022-08-22T07:10:14.641Z,34.80
2022-08-22T07:12:48.428Z,35.20
2022-08-22T07:15:22.373Z,35.49
2022-08-22T07:17:57.442Z,35.67
2022-08-22T07:20:36.513Z,35.11
2022-08-22T07:23:09.002Z,35.00
2022-08-22T07:25:55.255Z,35.40
2022-08-22T07:28:50.895Z,35.80
2022-08-22T07:31:54.051Z,35.47
2022-08-22T07:34:44.708Z,35.57
2022-08-22T07:37:29.577Z,35.71
2022-08-22T07:40:30.425Z,35.83
2022-08-22T07:43:00.232Z,36.33
2022-08-22T07:45:53.801Z,36.99
2022-08-22T07:48:30.281Z,37.39
2022-08-22T07:50:56.899Z,37.58
2022-08-22T07:53:34.092Z,37.94
2022-08-22T07:56:03.591Z,37.96
2022-08-22T07:58:33.854Z,38.68
2022-08-22T08:01:01.353Z,39.50
2022-08-22T08:03:31.003Z,40.41
2022-08-22T08:06:00.719Z,40.38
2022-08-22T08:08:35.680Z,39.69
2022-08-22T08:11:04.528Z,39.00
2022-08-22T08:13:38.771Z,37.79
2022-08-22T08:16:10.736Z,37.66
2022-08-22T08:18:39.426Z,37.85
2022-08-22T08:21:10.742Z,38.27
2022-08-22T08:23:46.039Z,39.40
2022-08-22T08:26:18.513Z,40.44
2022-08-22T08:28:49.705Z,42.31
2022-08-22T08:31:32.043Z,43.22
2022-08-22T08:34:05.163Z,43.93
2022-08-22T08:36:35.987Z,45.52
2022-08-22T08:39:18.214Z,46.72
2022-08-22T08:42:09.956Z,48.10
2022-08-22T08:44:49.403Z,46.79
2022-08-22T08:47:34.516Z,49.12
2022-08-22T08:50:40.053Z,49.42
2022-08-22T08:53:43.373Z,49.75
2022-08-22T08:56:19.584Z,48.92
2022-08-22T08:59:09.899Z,47.85
2022-08-22T09:01:40.008Z,48.40
2022-08-22T09:04:16.036Z,48.52
2022-08-22T09:07:05.747Z,50.03
2022-08-22T09:10:03.255Z,50.06
2022-08-22T09:12:33.644Z,50.85
2022-08-22T09:15:37.306Z,51.34
2022-08-22T09:18:19.640Z,52.07
2022-08-22T09:21:02.911Z,52.05
2022-08-22T09:23:47.494Z,50.82
2022-08-22T09:26:29.333Z,50.96
2022-08-22T09:29:21.418Z,51.55
2022-08-22T09:32:05.203Z,50.83
2022-08-22T09:35:05.960Z,50.68
2022-08-22T09:38:13.552Z,52.06
2022-08-22T09:40:51.466Z,52.43
2022-08-22T09:43:29.889Z,51.67
2022-08-22T09:46:06.391Z,52.87
2022-08-22T09:48:54.798Z,53.79
2022-08-22T09:51:34.573Z,54.59
2022-08-22T09:54:18.909Z,53.78
2022-08-22T09:57:00.854Z,54.41
2022-08-22T09:59:54.642Z,53.72
2022-08-22T10:02:43.562Z,54.78
2022-08-22T10:05:40.544Z,54.14
2022-08-22T10:08:33.000Z,53.20
2022-08-22T10:11:19.603Z,53.30
2022-08-22T10:13:57.773Z,52.18
2022-08-22T10:16:39.359Z,52.01
2022-08-22T10:19:13.053Z,51.34
2022-08-22T10:22:17.145Z,52.03
2022-08-22T10:24:57.064Z,51.96
2022-08-22T10:27:40.327Z,52.48
2022-08-22T10:30:11.773Z,51.51
2022-08-22T10:32:47.258Z,51.80
2022-08-22T10:35:14.598Z,51.56
2022-08-22T10:37:53.222Z,50.85
2022-08-22T10:40:36.477Z,51.45
2022-08-22T10:43:13.669Z,51.83
2022-08-22T10:45:45.254Z,53.11
2022-08-22T10:48:11.869Z,54.09
2022-08-22T10:50:44.795Z,54.61
2022-08-22T10:53:30.164Z,55.35
2022-08-22T10:56:07.700Z,56.18
2022-08-22T10:58:41.874Z,55.71
2022-08-22T11:01:38.635Z,53.99
2022-08-22T11:04:44.911Z,53.41
2022-08-22T11:08:06.329Z,51.45
2022-08-22T11:10:52.132Z,50.28
2022-08-22T11:13:32.353Z,50.88
2022-08-22T11:16:14.104Z,50.48
2022-08-22T11:19:04.951Z,51.71
2022-08-22T11:21:56.797Z,52.58
2022-08-22T11:24:35.378Z,52.31
2022-08-22T11:27:37.769Z,51.52
2022-08-22T11:30:18.564Z,53.22
2022-08-22T11:33:13.634Z,52.67
2022-08-22T11:36:09.337Z,53.60
2022-08-22T11:38:58.577Z,54.91
2022-08-22T11:41:27.736Z,55.03
2022-08-22T11:44:13.553Z,54.31
2022-08-22T11:46:47.259Z,55.50
2022-08-22T11:49:25.696Z,53.91
2022-08-22T11:52:15.259Z,54.15
2022-08-22T11:55:08.338Z,54.71
2022-08-22T11:57:54.607Z,53.61
2022-08-22T12:00:38.447Z,52.96
2022-08-22T12:03:23.410Z,53.32
2022-08-22T12:06:22.457Z,53.54
2022-08-22T12:09:09.792Z,51.55
2022-08-22T12:12:12.164Z,51.24
2022-08-22T12:14:54.635Z,48.64
2022-08-22T12:17:55.156Z,48.31
2022-08-22T12:20:26.045Z,45.95
2022-08-22T12:22:52.932Z,44.63
2022-08-22T12:25:46.423Z,44.21
2022-08-22T12:28:36.702Z,43.53
2022-08-22T12:31:15.640Z,44.17
2022-08-22T12:34:20.112Z,44.85
2022-08-22T12:37:03.270Z,44.64
2022-08-22T12:39:58.028Z,44.89
2022-08-22T12:42:30.789Z,44.63
2022-08-22T12:45:00.633Z,44.51
2022-08-22T12:47:48.387Z,43.84
2022-08-22T12:50:42.773Z,42.73
2022-08-22T12:53:20.303Z,41.99
2022-08-22T12:56:03.828Z,41.96
2022-08-22T12:58:33.879Z,41.65
2022-08-22T13:01:06.467Z,41.35
2022-08-22T13:03:37.567Z,41.05
2022-08-22T13:06:36.356Z,40.62
2022-08-22T13:09:20.675Z,39.97
2022-08-22T13:12:25.091Z,39.45
2022-08-22T13:15:15.444Z,38.82
2022-08-22T13:17:46.930Z,38.91
2022-08-22T13:20:26.781Z,39.26
2022-08-22T13:22:55.595Z,39.72
2022-08-22T13:25:26.508Z,40.22
2022-08-22T13:28:00.041Z,40.53
2022-08-22T13:30:27.335Z,40.72
2022-08-22T13:33:02.856Z,41.16
2022-08-22T13:35:37.531Z,41.44
2022-08-22T13:38:30.457Z,41.77
2022-08-22T13:40:58.995Z,41.90
2022-08-22T13:43:34.946Z,41.97
2022-08-22T13:46:11.031Z,41.77
2022-08-22T13:48:50.975Z,41.46
2022-08-22T13:51:45.871Z,41.06
2022-08-22T13:54:16.075Z,41.05
2022-08-22T13:56:53.888Z,40.72
2022-08-22T13:59:52.736Z,40.37
2022-08-22T14:02:30.991Z,39.76
2022-08-22T14:05:08.327Z,39.88
2022-08-22T14:07:55.326Z,39.81
2022-08-22T14:10:33.794Z,39.80
2022-08-22T14:13:00.685Z,39.76
2022-08-22T14:15:44.833Z,39.74
2022-08-22T14:18:30.450Z,39.99
2022-08-22T14:21:40.835Z,39.69
2022-08-22T14:24:14.347Z,39.54
2022-08-22T14:26:51.500Z,39.34
2022-08-22T14:29:21.209Z,39.29
2022-08-22T14:32:02.963Z,39.44
2022-08-22T14:34:34.325Z,39.55
2022-08-22T14:37:12.986Z,39.72
2022-08-22T14:39:48.674Z,39.43
2022-08-22T14:42:25.133Z,39.64
2022-08-22T14:45:06.643Z,39.36
2022-08-22T14:48:14.445Z,39.20
2022-08-22T14:50:53.156Z,39.24
2022-08-22T14:53:22.270Z,39.35
2022-08-22T14:56:18.338Z,39.29
2022-08-22T14:59:02.750Z,39.48
2022-08-22T15:01:32.754Z,39.56
2022-08-22T15:03:59.732Z,39.58
2022-08-22T15:06:50.785Z,39.22
2022-08-22T15:09:28.728Z,39.17
2022-08-22T15:11:58.068Z,39.09
2022-08-22T15:14:37.370Z,39.02
2022-08-22T15:17:08.610Z,39.23
2022-08-22T15:19:41.966Z,39.12
2022-08-22T15:22:28.164Z,38.87
2022-08-22T15:25:05.975Z,39.02
2022-08-22T15:27:45.449Z,39.03
2022-08-22T15:30:21.218Z,38.97
2022-08-22T15:32:48.992Z,38.79
2022-08-22T15:35:28.301Z,38.77
2022-08-22T15:38:06.717Z,38.56
2022-08-22T15:40:45.884Z,38.55
2022-08-22T15:43:26.447Z,38.49
2022-08-22T15:46:23.195Z,38.62
2022-08-22T15:49:07.471Z,38.55
2022-08-22T15:51:51.820Z,38.32
2022-08-22T15:54:25.696Z,38.34
2022-08-22T15:56:52.750Z,38.42
2022-08-22T15:59:47.870Z,38.58
2022-08-22T16:02:39.385Z,38.50
2022-08-22T16:05:09.473Z,38.62
2022-08-22T16:08:00.390Z,38.64
2022-08-22T16:10:32.780Z,38.74
2022-08-22T16:13:14.840Z,38.82
2022-08-22T16:15:56.358Z,38.66
2022-08-22T16:18:42.524Z,38.70
2022-08-22T16:21:14.828Z,38.69
2022-08-22T16:23:51.000Z,38.63
2022-08-22T16:26:36.375Z,38.60
2022-08-22T16:29:17.874Z,38.51
2022-08-22T16:31:44.938Z,38.42
2022-08-22T16:34:17.678Z,38.37
2022-08-22T16:36:49.533Z,38.24
2022-08-22T16:39:21.987Z,38.11
2022-08-22T16:41:54.640Z,37.98
2022-08-22T16:44:30.331Z,37.81
2022-08-22T16:47:08.026Z,37.52
2022-08-22T16:49:40.924Z,37.41
2022-08-22T16:52:26.114Z,37.28
2022-08-22T16:54:55.484Z,37.08
2022-08-22T16:57:38.014Z,37.01
2022-08-22T17:00:38.057Z,36.92
2022-08-22T17:03:23.498Z,36.76
2022-08-22T17:06:35.714Z,36.59
2022-08-22T17:09:29.930Z,36.49
2022-08-22T17:12:21.255Z,36.38
2022-08-22T17:15:18.676Z,36.22
2022-08-22T17:17:51.780Z,36.09
2022-08-22T17:20:33.510Z,36.03
2022-08-22T17:23:07.441Z,35.88
2022-08-22T17:25:36.481Z,35.82
2022-08-22T17:28:11.819Z,35.80
2022-08-22T17:31:11.315Z,35.63
2022-08-22T17:33:40.818Z,35.59
2022-08-22T17:36:27.077Z,35.48
2022-08-22T17:39:32.251Z,35.45
2022-08-22T17:42:23.432Z,35.28
2022-08-22T17:45:03.237Z,35.23
2022-08-22T17:47:45.145Z,35.24
2022-08-22T17:50:30.686Z,35.15
2022-08-22T17:53:12.668Z,35.14
2022-08-22T17:55:56.612Z,35.09
2022-08-22T17:58:37.566Z,35.03
2022-08-22T18:01:35.598Z,34.92
2022-08-22T18:04:06.593Z,34.81
2022-08-22T18:06:37.964Z,34.64
2022-08-22T18:09:20.298Z,34.55
2022-08-22T18:11:56.005Z,34.52
2022-08-22T18:14:28.848Z,34.51
2022-08-22T18:16:59.284Z,34.44
2022-08-22T18:19:41.237Z,34.39
2022-08-22T18:22:40.265Z,34.31
2022-08-22T18:25:18.991Z,34.24
2022-08-22T18:27:59.888Z,34.23
2022-08-22T18:30:30.991Z,34.17
2022-08-22T18:33:22.428Z,34.13
2022-08-22T18:35:55.581Z,34.04
2022-08-22T18:38:31.040Z,33.88
2022-08-22T18:41:45.322Z,33.79
2022-08-22T18:44:27.752Z,33.71
2022-08-22T18:46:58.724Z,33.44
2022-08-22T18:49:25.396Z,33.17
2022-08-22T18:52:13.735Z,33.01
2022-08-22T18:54:49.690Z,32.63
2022-08-22T18:57:26.435Z,32.49
2022-08-22T19:00:05.546Z,32.28
2022-08-22T19:02:55.905Z,32.24
2022-08-22T19:06:05.064Z,32.13
2022-08-22T19:08:53.864Z,32.12
2022-08-22T19:11:20.709Z,32.02
2022-08-22T19:14:26.806Z,32.04
2022-08-22T19:17:32.863Z,31.99
2022-08-22T19:20:26.564Z,31.98
2022-08-22T19:23:32.705Z,31.99
2022-08-22T19:26:42.426Z,31.89
2022-08-22T19:29:15.925Z,31.73
2022-08-22T19:31:45.822Z,31.54
2022-08-22T19:34:15.218Z,31.28
2022-08-22T19:36:42.929Z,31.30
2022-08-22T19:39:11.842Z,31.16
2022-08-22T19:41:56.908Z,31.14
2022-08-22T19:44:23.574Z,31.03
2022-08-22T19:47:28.960Z,30.79
2022-08-22T19:50:16.757Z,30.62
2022-08-22T19:52:59.357Z,30.43
2022-08-22T19:56:05.515Z,30.43
2022-08-22T19:58:35.038Z,30.42
2022-08-22T20:01:28.121Z,30.46
2022-08-22T20:04:04.789Z,30.38
2022-08-22T20:06:44.671Z,30.35
2022-08-22T20:09:21.049Z,30.38
2022-08-22T20:12:15.505Z,30.29
2022-08-22T20:14:46.009Z,30.26
2022-08-22T20:17:24.948Z,30.32
2022-08-22T20:23:10.411Z,30.19
2022-08-22T20:25:46.894Z,30.13
2022-08-22T20:28:52.430Z,30.09
2022-08-22T20:31:25.402Z,30.14
2022-08-22T20:33:58.506Z,30.07
2022-08-22T20:36:28.409Z,30.06
2022-08-22T20:39:05.855Z,30.21
2022-08-22T20:41:37.366Z,30.19
2022-08-22T20:44:09.018Z,30.14
2022-08-22T20:46:57.645Z,30.17
2022-08-22T20:49:41.852Z,30.18
2022-08-22T20:52:21.318Z,30.15
2022-08-22T20:55:13.524Z,30.12
2022-08-22T20:57:57.149Z,30.09
2022-08-22T21:00:33.059Z,30.09
2022-08-22T21:03:07.573Z,30.05
2022-08-22T21:05:44.543Z,30.05
2022-08-22T21:08:19.523Z,29.93
2022-08-22T21:11:15.927Z,29.69
2022-08-22T21:13:42.761Z,29.46
2022-08-22T21:16:22.267Z,29.40
2022-08-22T21:18:52.210Z,29.16
2022-08-22T21:21:28.157Z,29.14
2022-08-22T21:24:00.594Z,29.15
2022-08-22T21:26:57.038Z,29.15
2022-08-22T21:29:32.698Z,29.11
2022-08-22T21:32:13.982Z,29.17
2022-08-22T21:34:46.690Z,29.13
2022-08-22T21:37:15.288Z,29.16
2022-08-22T21:39:47.656Z,29.10
2022-08-22T21:42:45.720Z,29.04
2022-08-22T21:45:54.894Z,28.87
2022-08-22T21:48:38.589Z,28.74
2022-08-22T21:51:36.498Z,28.63
2022-08-22T21:54:40.138Z,28.60
2022-08-22T21:57:09.437Z,28.51
2022-08-22T21:59:51.954Z,28.50
2022-08-22T22:02:37.017Z,28.53
2022-08-22T22:05:11.581Z,28.51
2022-08-22T22:07:42.175Z,28.47
2022-08-22T22:10:19.204Z,28.41
2022-08-22T22:12:47.810Z,28.37
2022-08-22T22:15:18.418Z,28.33
2022-08-22T22:17:45.335Z,28.30
2022-08-22T22:20:15.186Z,28.29
2022-08-22T22:22:45.909Z,28.27
2022-08-22T22:25:41.191Z,28.20
2022-08-22T22:28:05.701Z,28.18
2022-08-22T22:30:32.938Z,28.11
2022-08-22T22:32:59.726Z,28.03
2022-08-22T22:35:27.017Z,28.01
2022-08-22T22:37:55.280Z,27.98
2022-08-22T22:40:23.916Z,27.91
2022-08-22T22:42:51.023Z,27.95
2022-08-22T22:45:17.845Z,27.93
2022-08-22T22:47:44.597Z,27.85
2022-08-22T22:50:11.403Z,27.82
2022-08-22T22:52:40.616Z,27.79
2022-08-22T22:55:08.895Z,27.71
2022-08-22T22:57:46.843Z,27.66
2022-08-22T23:00:14.605Z,27.69
2022-08-22T23:02:42.327Z,27.60
2022-08-22T23:05:11.182Z,27.49
2022-08-22T23:07:38.761Z,27.47
2022-08-22T23:10:07.139Z,27.38
2022-08-22T23:12:35.520Z,27.44
2022-08-22T23:15:02.845Z,27.47
2022-08-22T23:17:29.710Z,27.44
2022-08-22T23:19:56.499Z,27.51
2022-08-22T23:22:23.448Z,27.55
2022-08-22T23:24:50.795Z,27.56
2022-08-22T23:27:18.023Z,27.51
2022-08-22T23:29:44.840Z,27.55
2022-08-22T23:32:13.048Z,27.47
2022-08-22T23:34:46.202Z,27.41
2022-08-22T23:37:22.520Z,27.30
2022-08-22T23:39:49.446Z,27.15
2022-08-22T23:42:18.060Z,27.02
2022-08-22T23:44:45.880Z,26.91
2022-08-22T23:47:14.304Z,26.90
2022-08-22T23:49:42.466Z,26.82
2022-08-22T23:52:11.301Z,26.71
2022-08-22T23:54:38.433Z,26.64
2022-08-22T23:57:12.247Z,26.61
2022-08-22T23:59:46.342Z,26.45
